Time;durP1;ratioP1;P1;durP2;ratioP2;P2;SDS_P1;SDS_P2;PMS_P1;PMS_P2;Temp;Humidity;BMP_temperature;BMP_pressure;BME280_temperature;BME280_humidity;BME280_pressure;Samples;Min_cycle;Max_cycle;Signal;HPM_P1;HPM_P2
2023/08/04 00:00:17;;;;;;;15.85;11.40;;;;;;;18.67;73.49;100391.93;1785189;79;21419;-56
2023/08/04 00:05:51;;;;;;;14.07;10.68;;;;;;;18.63;73.62;100394.83;1763357;79;21346;-55
2023/08/04 00:11:26;;;;;;;13.80;10.43;;;;;;;18.59;73.74;100397.77;1773416;79;21893;-56
2023/08/04 00:17:00;;;;;;;15.08;11.30;;;;;;;18.55;73.89;100401.22;1737081;78;21351;-56
2023/08/04 00:19:58;;;;;;;17.27;10.35;;;;;;;18.54;73.99;100405.91;1738420;77;21668;-55
2023/08/04 00:23:06;;;;;;;13.40;10.43;;;;;;;18.52;74.09;100405.28;1772788;78;21290;-56
2023/08/04 00:26:12;;;;;;;13.65;10.13;;;;;;;18.49;74.08;100403.52;1780774;78;21357;-55
2023/08/04 00:31:46;;;;;;;14.85;10.90;;;;;;;18.39;74.12;100405.41;1787117;78;21353;-55
2023/08/04 00:37:23;;;;;;;13.60;10.50;;;;;;;18.36;74.29;100410.52;1786316;78;21366;-56
2023/08/04 00:43:00;;;;;;;14.60;10.72;;;;;;;18.32;74.44;100415.66;1759269;79;21366;-55
2023/08/04 00:51:06;;;;;;;19.45;11.08;;;;;;;18.25;74.54;100419.56;1733357;79;21870;-55
2023/08/04 00:56:41;;;;;;;13.48;9.85;;;;;;;18.23;74.83;100420.31;1732806;81;21415;-55
2023/08/04 01:02:18;;;;;;;15.48;10.03;;;;;;;18.19;74.82;100431.55;1784987;78;21333;-55
2023/08/04 01:08:01;;;;;;;13.48;10.35;;;;;;;18.12;74.89;100441.82;1775303;79;21858;-55
2023/08/04 01:13:48;;;;;;;13.60;9.58;;;;;;;18.09;75.03;100437.59;1789063;79;20324;-55
2023/08/04 01:16:53;;;;;;;13.15;10.50;;;;;;;18.06;75.11;100436.62;1787122;78;21972;-56
2023/08/04 01:19:59;;;;;;;15.60;10.05;;;;;;;18.04;75.17;100440.17;1781936;79;21336;-55
2023/08/04 01:25:38;;;;;;;17.17;10.35;;;;;;;18.00;75.25;100439.45;1785194;78;21947;-55
2023/08/04 01:28:46;;;;;;;16.48;10.08;;;;;;;17.98;75.25;100439.69;1784356;79;21338;-55
2023/08/04 01:31:36;;;;;;;16.77;10.05;;;;;;;17.96;75.34;100440.44;1799750;78;21326;-55
2023/08/04 01:34:47;;;;;;;14.55;10.85;;;;;;;17.95;75.37;100442.87;1782263;78;21374;-55
2023/08/04 01:42:49;;;;;;;13.70;9.65;;;;;;;17.88;75.50;100447.09;1797140;78;21354;-56
2023/08/04 01:48:25;;;;;;;15.30;9.18;;;;;;;17.86;75.62;100453.91;1790902;79;21383;-55
2023/08/04 01:51:30;;;;;;;13.65;8.80;;;;;;;17.83;75.63;100457.11;1789264;78;21326;-55
2023/08/04 01:57:05;;;;;;;11.57;8.33;;;;;;;17.76;75.68;100454.37;1780080;77;21405;-56
2023/08/04 02:02:42;;;;;;;10.25;8.00;;;;;;;17.75;75.81;100458.75;1775918;79;21386;-54
2023/08/04 02:08:17;;;;;;;11.03;8.15;;;;;;;17.70;75.83;100465.48;1784845;79;21346;-55
2023/08/04 02:13:52;;;;;;;14.80;9.10;;;;;;;17.65;75.84;100471.68;1768575;79;21828;-55
2023/08/04 02:19:28;;;;;;;11.93;8.65;;;;;;;17.61;75.95;100471.81;1772654;79;21370;-54
2023/08/04 02:25:04;;;;;;;13.20;8.93;;;;;;;17.64;76.27;100471.91;1724897;80;21330;-56
2023/08/04 02:30:40;;;;;;;13.45;8.13;;;;;;;17.68;76.52;100474.01;1777879;78;21378;-56
2023/08/04 02:36:15;;;;;;;12.80;8.63;;;;;;;17.69;76.53;100477.63;1770082;78;21448;-55
2023/08/04 02:39:21;;;;;;;13.53;8.03;;;;;;;17.69;76.49;100481.27;1784795;78;21842;-55
2023/08/04 02:47:26;;;;;;;12.70;8.28;;;;;;;17.70;76.68;100476.55;1791325;78;21216;-55
2023/08/04 02:53:01;;;;;;;14.07;8.48;;;;;;;17.75;76.87;100488.69;1784968;78;21322;-55
2023/08/04 02:58:37;;;;;;;12.53;8.18;;;;;;;17.82;76.97;100492.81;1778081;79;21401;-55
2023/08/04 03:04:13;;;;;;;12.63;8.30;;;;;;;17.88;77.12;100498.33;1779216;79;21840;-55
2023/08/04 03:12:18;;;;;;;13.32;9.23;;;;;;;18.00;77.30;100503.17;1789572;78;21347;-56
2023/08/04 03:17:53;;;;;;;17.52;9.30;;;;;;;18.07;77.31;100507.60;1777919;78;21384;-56
2023/08/04 03:23:29;;;;;;;12.93;9.40;;;;;;;18.17;77.49;100514.87;1781540;78;21347;-56
2023/08/04 03:29:02;;;;;;;15.45;9.40;;;;;;;18.28;77.68;100519.75;1796992;78;21372;-56
2023/08/04 03:32:10;;;;;;;14.95;10.63;;;;;;;18.33;77.69;100524.06;1796219;79;21320;-56
2023/08/04 03:37:45;;;;;;;83.27;13.95;;;;;;;18.46;77.87;100519.00;1787019;78;21350;-56
2023/08/04 03:40:43;;;;;;;15.63;11.60;;;;;;;18.53;77.98;100524.84;1786900;78;21298;-56
2023/08/04 03:46:20;;;;;;;15.70;10.88;;;;;;;18.69;78.20;100521.52;1796139;78;21350;-56
2023/08/04 03:51:54;;;;;;;24.02;13.95;;;;;;;18.88;78.40;100515.49;1797824;78;21464;-56
2023/08/04 03:57:30;;;;;;;22.27;16.95;;;;;;;19.05;78.59;100516.61;1798967;78;21977;-56
2023/08/04 04:00:35;;;;;;;20.57;17.55;;;;;;;19.12;78.66;100513.25;1779948;78;21399;-57
2023/08/04 04:06:10;;;;;;;22.62;17.98;;;;;;;19.31;78.84;100518.63;1779294;77;21220;-57
2023/08/04 04:11:45;;;;;;;22.85;18.57;;;;;;;19.48;78.94;100516.11;1801541;78;21224;-57
2023/08/04 04:17:21;;;;;;;21.97;19.52;;;;;;;19.65;79.05;100515.80;1747409;77;21280;-57
2023/08/04 04:22:56;;;;;;;22.05;17.62;;;;;;;19.82;79.19;100518.26;1759417;78;21349;-57
2023/08/04 04:28:31;;;;;;;21.57;17.42;;;;;;;20.00;79.37;100522.42;1768840;77;21338;-57
2023/08/04 04:34:07;;;;;;;20.05;16.62;;;;;;;20.19;79.50;100521.87;1766019;78;21204;-57
2023/08/04 04:39:41;;;;;;;21.85;17.55;;;;;;;20.36;79.61;100522.38;1758710;77;21227;-57
2023/08/04 04:42:46;;;;;;;20.50;16.90;;;;;;;20.46;79.63;100524.59;1725645;79;21891;-57
2023/08/04 04:48:21;;;;;;;25.88;20.43;;;;;;;20.65;79.79;100522.91;1740858;80;21989;-57
2023/08/04 04:53:57;;;;;;;22.65;18.82;;;;;;;20.83;79.87;100518.63;1780594;77;21875;-57
2023/08/04 04:59:33;;;;;;;21.80;17.90;;;;;;;21.02;79.96;100520.84;1789919;78;21302;-57
2023/08/04 05:07:38;;;;;;;29.37;20.15;;;;;;;21.27;80.09;100521.45;1793050;78;21254;-53
2023/08/04 05:13:12;;;;;;;85.67;26.65;;;;;;;21.47;80.19;100531.67;1774806;78;21241;-54
2023/08/04 05:18:47;;;;;;;23.50;18.62;;;;;;;21.66;80.23;100529.05;1803003;77;21254;-54
2023/08/04 05:24:22;;;;;;;26.23;20.72;;;;;;;21.84;80.25;100532.27;1784771;77;21258;-57
2023/08/04 05:29:57;;;;;;;22.93;17.75;;;;;;;22.03;80.29;100529.63;1800592;78;21156;-55
2023/08/04 05:35:37;;;;;;;19.80;15.55;;;;;;;22.19;80.28;100533.89;1789704;79;21187;-53
2023/08/04 05:41:10;;;;;;;16.30;14.60;;;;;;;22.37;80.31;100536.18;1770156;79;21748;-55
2023/08/04 05:44:15;;;;;;;19.07;13.93;;;;;;;22.46;80.31;100534.67;1756303;79;21713;-54
2023/08/04 05:49:49;;;;;;;15.95;13.75;;;;;;;22.65;80.25;100534.80;1793983;77;21554;-54
2023/08/04 05:55:27;;;;;;;14.78;11.63;;;;;;;22.82;80.28;100538.45;1764702;80;21721;-53
2023/08/04 06:01:03;;;;;;;13.32;11.93;;;;;;;22.96;80.14;100548.23;1777478;79;21282;-54
2023/08/04 06:06:40;;;;;;;15.85;13.35;;;;;;;23.11;80.04;100540.09;1717455;80;21777;-55
2023/08/04 06:12:16;;;;;;;15.30;13.70;;;;;;;23.26;80.02;100543.20;1802915;77;21256;-54
2023/08/04 06:15:22;;;;;;;16.23;13.83;;;;;;;23.34;80.04;100539.40;1762459;78;21993;-55
2023/08/04 06:20:57;;;;;;;15.65;14.03;;;;;;;23.53;79.96;100538.59;1796916;77;21199;-55
2023/08/04 06:26:33;;;;;;;14.90;13.38;;;;;;;23.71;79.86;100547.22;1781257;78;22293;-54
2023/08/04 06:32:10;;;;;;;15.75;13.32;;;;;;;23.86;79.79;100548.84;1775223;77;21378;-53
2023/08/04 06:37:45;;;;;;;15.20;13.38;;;;;;;24.02;79.70;100547.44;1810337;78;22171;-55
2023/08/04 06:40:51;;;;;;;14.80;12.75;;;;;;;24.09;79.63;100554.22;1792126;78;21588;-56
2023/08/04 06:48:55;;;;;;;14.03;12.63;;;;;;;24.34;79.44;100556.78;1769988;78;22536;-56
2023/08/04 06:52:00;;;;;;;16.45;13.05;;;;;;;24.42;79.38;100559.70;1748855;80;21211;-54
2023/08/04 06:55:06;;;;;;;16.85;13.05;;;;;;;24.51;79.31;100561.77;1783073;77;21207;-54
2023/08/04 07:00:41;;;;;;;13.85;10.98;;;;;;;24.68;79.16;100564.50;1775903;78;21237;-55
2023/08/04 07:06:16;;;;;;;12.58;10.50;;;;;;;24.81;78.80;100566.34;1782978;79;21290;-54
2023/08/04 07:09:21;;;;;;;17.12;13.62;;;;;;;24.88;78.66;100566.09;1792624;78;21262;-54
2023/08/04 07:12:27;;;;;;;10.32;8.88;;;;;;;24.94;78.47;100571.48;1782091;78;21308;-54
2023/08/04 07:18:00;;;;;;;12.13;8.53;;;;;;;25.10;78.27;100573.91;1786499;79;21323;-55
2023/08/04 07:23:36;;;;;;;10.45;7.70;;;;;;;25.28;78.05;100568.42;1794199;78;21361;-55
2023/08/04 07:29:12;;;;;;;9.83;7.58;;;;;;;25.43;77.81;100567.20;1789191;77;21721;-56
2023/08/04 07:34:47;;;;;;;8.43;6.85;;;;;;;25.56;77.47;100571.78;1799778;78;21806;-54
2023/08/04 07:40:23;;;;;;;8.35;6.17;;;;;;;25.71;77.20;100573.84;1767316;79;21372;-53
2023/08/04 07:48:29;;;;;;;6.62;5.92;;;;;;;25.86;76.65;100574.78;1768753;78;21310;-56
2023/08/04 07:51:35;;;;;;;8.20;6.05;;;;;;;25.89;76.48;100574.27;1791820;79;21216;-59
2023/08/04 07:57:07;;;;;;;6.15;5.28;;;;;;;26.01;76.12;100576.88;1790980;78;21191;-57
2023/08/04 08:00:17;;;;;;;7.05;5.53;;;;;;;26.07;76.05;100578.04;1780273;78;21240;-58
2023/08/04 08:03:25;;;;;;;11.48;6.83;;;;;;;26.14;75.87;100574.98;1772544;78;21985;-55
2023/08/04 08:06:32;;;;;;;7.05;6.03;;;;;;;26.24;75.76;100583.47;1769920;77;21235;-55
2023/08/04 08:09:39;;;;;;;13.55;6.33;;;;;;;26.31;75.54;100581.23;1774808;79;21251;-56
2023/08/04 08:12:45;;;;;;;6.47;5.60;;;;;;;26.40;75.46;100581.02;1802666;77;22130;-54
2023/08/04 08:15:51;;;;;;;6.17;4.12;;;;;;;26.51;75.32;100578.53;1800904;78;21191;-52
2023/08/04 08:18:57;;;;;;;5.85;4.10;;;;;;;26.58;74.94;100579.09;1764855;80;21756;-48
2023/08/04 08:27:01;;;;;;;5.47;4.15;;;;;;;26.73;74.05;100587.62;1754568;79;21589;-52
2023/08/04 08:30:10;;;;;;;9.85;4.87;;;;;;;26.77;73.84;100594.36;1756615;78;21242;-51
2023/08/04 08:33:19;;;;;;;7.92;4.30;;;;;;;26.83;73.61;100587.62;1750196;78;21275;-52
2023/08/04 08:36:28;;;;;;;4.85;4.35;;;;;;;26.92;73.48;100590.20;1788175;78;21272;-56
2023/08/04 08:39:48;;;;;;;6.47;4.35;;;;;;;27.00;73.29;100591.61;1780222;78;22060;-55
2023/08/04 08:43:08;;;;;;;5.45;3.98;;;;;;;27.09;73.08;100590.78;1798082;78;21850;-54
2023/08/04 08:46:14;;;;;;;6.62;4.37;;;;;;;27.20;72.87;100592.48;1767423;77;21265;-54
2023/08/04 08:49:21;;;;;;;6.15;4.37;;;;;;;27.27;72.59;100593.09;1772425;78;21377;-56
2023/08/04 08:54:56;;;;;;;4.95;3.80;;;;;;;27.41;72.04;100587.74;1776963;78;21246;-56
2023/08/04 09:00:31;;;;;;;5.50;4.15;;;;;;;27.56;71.58;100598.42;1798271;78;21294;-55
2023/08/04 09:06:07;;;;;;;5.78;3.60;;;;;;;27.71;71.10;100599.83;1792009;78;21835;-55
2023/08/04 09:11:44;;;;;;;5.08;3.40;;;;;;;27.82;70.29;100591.66;1785875;78;21350;-53
2023/08/04 09:17:18;;;;;;;5.25;3.67;;;;;;;27.97;69.95;100591.38;1789668;78;21247;-54
2023/08/04 09:22:53;;;;;;;4.67;3.92;;;;;;;28.14;69.48;100591.89;1779907;78;21733;-54
2023/08/04 09:28:27;;;;;;;4.10;3.50;;;;;;;28.25;68.83;100594.39;1792596;78;21217;-54
2023/08/04 09:34:05;;;;;;;5.05;3.52;;;;;;;28.43;68.39;100599.96;1782535;78;21231;-53
2023/08/04 09:39:40;;;;;;;3.98;3.08;;;;;;;28.60;67.73;100597.66;1786847;78;22029;-52
2023/08/04 09:42:38;;;;;;;4.17;3.33;;;;;;;28.65;67.41;100599.05;1787258;78;21399;-55
2023/08/04 09:45:44;;;;;;;5.25;3.67;;;;;;;28.70;66.96;100604.66;1741872;78;21370;-56
2023/08/04 09:51:22;;;;;;;6.65;4.08;;;;;;;28.72;66.17;100609.42;1750018;80;21349;-54
2023/08/04 09:56:58;;;;;;;4.50;3.60;;;;;;;28.81;65.65;100611.34;1774507;77;22283;-55
2023/08/04 10:02:34;;;;;;;5.65;3.75;;;;;;;28.93;65.02;100606.77;1761456;78;21258;-53
2023/08/04 10:05:40;;;;;;;7.30;5.95;;;;;;;28.97;64.80;100614.94;1768964;77;21219;-53
2023/08/04 10:08:41;;;;;;;5.00;3.60;;;;;;;29.00;64.44;100603.90;1790859;77;21139;-53
2023/08/04 10:14:15;;;;;;;4.72;3.70;;;;;;;29.13;63.33;100607.52;1789865;78;21208;-53
2023/08/04 10:17:21;;;;;;;4.15;3.65;;;;;;;29.13;63.33;100607.52;1768800;79;21583;-54
2023/08/04 10:22:56;;;;;;;5.90;3.95;;;;;;;29.07;62.64;100609.25;1801397;78;21295;-54
2023/08/04 10:28:31;;;;;;;4.95;3.55;;;;;;;28.99;61.83;100607.02;1803113;77;21283;-53
2023/08/04 10:34:37;;;;;;;5.25;3.87;;;;;;;29.24;61.60;100601.23;1792500;77;21834;-54
2023/08/04 10:40:13;;;;;;;5.42;3.70;;;;;;;29.39;61.55;100598.86;1781487;77;21243;-50
2023/08/04 10:48:23;;;;;;;6.55;3.95;;;;;;;29.75;60.79;100604.53;1779703;78;21219;-49
2023/08/04 10:51:23;;;;;;;4.20;3.80;;;;;;;29.88;60.27;100602.40;1756272;77;21304;-52
2023/08/04 10:57:00;;;;;;;5.22;4.05;;;;;;;29.87;59.62;100602.99;1788773;78;21366;-51
2023/08/04 11:02:34;;;;;;;4.08;3.33;;;;;;;30.06;59.33;100604.48;1776239;78;21216;-54
2023/08/04 11:05:40;;;;;;;4.53;3.80;;;;;;;30.13;59.01;100606.36;1788912;78;21275;-55
2023/08/04 11:11:16;;;;;;;5.75;3.72;;;;;;;30.28;58.48;100601.45;1779954;77;21840;-54
2023/08/04 11:16:58;;;;;;;6.03;3.72;;;;;;;30.45;58.02;100607.44;1785898;77;21776;-52
2023/08/04 11:25:02;;;;;;;4.62;3.40;;;;;;;30.65;57.23;100595.86;1781601;78;21594;-55
2023/08/04 11:28:09;;;;;;;4.65;3.22;;;;;;;30.74;57.00;100603.67;1786505;76;21195;-56
2023/08/04 11:36:16;;;;;;;6.90;3.62;;;;;;;30.78;55.83;100599.97;1797760;78;21637;-54
2023/08/04 11:41:58;;;;;;;4.35;3.67;;;;;;;30.91;55.48;100593.56;1773800;77;21222;-56
2023/08/04 11:47:32;;;;;;;5.25;4.00;;;;;;;31.06;55.05;100596.19;1797526;78;21215;-55
2023/08/04 11:50:38;;;;;;;4.05;3.65;;;;;;;31.07;54.72;100595.03;1802795;78;21203;-56
2023/08/04 11:58:55;;;;;;;5.12;3.90;;;;;;;31.19;53.90;100594.58;1784767;77;21307;-62
2023/08/04 12:04:46;;;;;;;4.95;3.95;;;;;;;31.25;53.35;100589.09;1755462;79;21267;-62
2023/08/04 12:07:53;;;;;;;7.37;3.87;;;;;;;31.29;53.13;100581.66;1758861;80;21535;-62
2023/08/04 12:11:07;;;;;;;4.92;3.67;;;;;;;31.33;52.89;100599.19;1766546;78;21259;-62
2023/08/04 12:17:00;;;;;;;4.40;4.00;;;;;;;31.19;52.19;100588.91;1782468;77;21212;-60
2023/08/04 12:22:36;;;;;;;5.20;4.20;;;;;;;31.10;51.70;100592.15;1809476;77;21218;-63
2023/08/04 12:28:12;;;;;;;7.78;4.22;;;;;;;31.12;51.49;100599.77;1783060;77;21247;-60
2023/08/04 12:31:19;;;;;;;9.13;4.00;;;;;;;31.10;51.30;100590.73;1767311;79;21307;-62
2023/08/04 12:36:56;;;;;;;5.28;3.98;;;;;;;30.98;50.82;100586.13;1803489;77;21941;-61
2023/08/04 12:40:03;;;;;;;6.42;4.37;;;;;;;30.98;50.76;100591.21;1794239;78;21235;-62
2023/08/04 12:48:07;;;;;;;4.92;3.85;;;;;;;30.89;50.18;100583.13;1788313;78;21425;-61
2023/08/04 12:53:42;;;;;;;6.00;3.80;;;;;;;30.81;49.80;100582.98;1800391;77;22136;-62
2023/08/04 12:56:43;;;;;;;6.97;3.98;;;;;;;30.81;49.86;100588.64;1768235;80;21205;-60
2023/08/04 12:59:51;;;;;;;4.33;3.62;;;;;;;30.80;49.75;100584.11;1745903;77;21398;-62
2023/08/04 13:05:28;;;;;;;5.20;3.85;;;;;;;30.79;49.52;100587.53;1789882;77;21288;-58
2023/08/04 13:11:04;;;;;;;5.55;3.83;;;;;;;30.85;49.41;100582.63;1811119;78;21202;-62
2023/08/04 13:16:39;;;;;;;5.08;3.90;;;;;;;30.95;49.29;100590.41;1738815;77;21211;-58
2023/08/04 13:22:14;;;;;;;7.35;4.30;;;;;;;30.97;49.07;100585.86;1734463;76;21269;-58
2023/08/04 13:27:49;;;;;;;4.83;4.03;;;;;;;30.99;48.86;100590.62;1777800;77;21295;-58
2023/08/04 13:33:25;;;;;;;4.67;3.75;;;;;;;30.98;48.56;100591.78;1754088;80;21295;-58
2023/08/04 13:36:32;;;;;;;4.10;3.70;;;;;;;30.98;48.48;100591.21;1748919;80;21546;-58
2023/08/04 13:42:07;;;;;;;8.50;3.90;;;;;;;30.98;48.22;100596.02;1742419;80;21219;-58
2023/08/04 13:47:41;;;;;;;7.28;3.85;;;;;;;31.02;48.12;100593.69;1749095;80;21268;-58
2023/08/04 13:50:48;;;;;;;5.55;3.87;;;;;;;31.06;48.05;100595.33;1780829;78;21195;-58
2023/08/04 13:56:22;;;;;;;8.53;3.80;;;;;;;31.10;47.88;100593.56;1803060;78;21499;-57
2023/08/04 13:59:29;;;;;;;5.08;3.40;;;;;;;31.19;48.00;100591.15;1787451;77;21363;-58
2023/08/04 14:07:37;;;;;;;5.62;4.12;;;;;;;31.31;47.67;100593.55;1805351;78;21235;-58
2023/08/04 14:15:42;;;;;;;7.15;3.90;;;;;;;31.33;47.28;100587.02;1796992;78;21887;-57
2023/08/04 14:18:49;;;;;;;5.22;3.92;;;;;;;31.32;47.19;100586.73;1781144;77;21812;-58
2023/08/04 14:21:54;;;;;;;4.72;3.80;;;;;;;31.38;47.08;100589.77;1786533;76;21358;-59
2023/08/04 14:27:29;;;;;;;5.15;3.40;;;;;;;31.40;46.91;100584.05;1796922;78;21901;-58
2023/08/04 14:30:39;;;;;;;5.37;3.85;;;;;;;31.38;46.84;100586.34;1806155;78;21254;-58
2023/08/04 14:36:15;;;;;;;6.03;3.98;;;;;;;31.36;46.59;100575.93;1779036;78;21853;-58
2023/08/04 14:41:51;;;;;;;4.05;3.50;;;;;;;31.50;46.36;100577.38;1790859;78;21235;-57
2023/08/04 14:47:28;;;;;;;30.50;8.83;;;;;;;31.48;46.23;100579.11;1775914;77;21354;-57
2023/08/04 14:53:03;;;;;;;12.75;4.80;;;;;;;31.54;46.06;100576.45;1770303;78;21366;-57
2023/08/04 14:58:40;;;;;;;8.73;4.62;;;;;;;31.57;45.85;100575.02;1777903;78;21406;-57
2023/08/04 15:04:17;;;;;;;11.03;5.00;;;;;;;31.55;45.72;100578.16;1767933;80;21481;-56
2023/08/04 15:07:23;;;;;;;7.25;4.30;;;;;;;31.62;45.69;100575.74;1761724;80;21712;-57
2023/08/04 15:12:57;;;;;;;43.20;13.32;;;;;;;31.69;45.45;100585.26;1771715;79;21744;-56
2023/08/04 15:18:32;;;;;;;9.83;4.50;;;;;;;31.63;45.37;100583.67;1708403;81;21255;-57
2023/08/04 15:24:07;;;;;;;6.28;3.75;;;;;;;31.60;45.28;100588.55;1738606;79;21787;-57
2023/08/04 15:29:44;;;;;;;5.05;4.08;;;;;;;31.76;45.42;100589.95;1757355;80;21425;-57
2023/08/04 15:35:23;;;;;;;7.75;3.95;;;;;;;32.65;44.63;100593.59;1722718;79;21322;-57
2023/08/04 15:41:09;;;;;;;5.15;3.90;;;;;;;32.44;44.45;100593.78;1769943;78;21711;-57
2023/08/04 15:44:15;;;;;;;5.62;3.83;;;;;;;32.27;44.49;100592.09;1790840;78;21216;-57
2023/08/04 15:47:21;;;;;;;8.85;4.22;;;;;;;32.08;44.62;100591.94;1767393;77;21193;-57
2023/08/04 15:50:26;;;;;;;6.87;4.37;;;;;;;31.90;44.81;100588.84;1790304;78;21369;-57
2023/08/04 15:53:39;;;;;;;6.33;4.35;;;;;;;31.76;44.99;100592.79;1735472;79;21250;-56
2023/08/04 15:59:15;;;;;;;4.45;3.85;;;;;;;31.55;45.39;100591.45;1761963;78;21203;-57
2023/08/04 16:04:50;;;;;;;9.05;4.60;;;;;;;31.68;45.30;100593.50;1784631;78;21195;-57
2023/08/04 16:12:58;;;;;;;8.80;5.00;;;;;;;31.58;45.71;100585.17;1795245;77;21696;-56
2023/08/04 16:16:15;;;;;;;13.48;6.08;;;;;;;31.49;45.75;100588.45;1790765;78;21204;-55
2023/08/04 16:19:23;;;;;;;6.72;4.87;;;;;;;31.27;45.99;100584.80;1785498;78;21775;-57
2023/08/04 16:22:31;;;;;;;9.40;5.00;;;;;;;31.07;46.30;100587.11;1749367;77;21270;-57
2023/08/04 16:25:39;;;;;;;10.95;5.65;;;;;;;30.91;46.56;100588.47;1759728;79;21271;-57
2023/08/04 16:31:16;;;;;;;7.95;4.85;;;;;;;30.57;46.98;100585.23;1747837;78;21757;-57
2023/08/04 16:36:52;;;;;;;6.67;4.90;;;;;;;30.28;47.34;100579.40;1734906;79;21265;-57
2023/08/04 16:39:59;;;;;;;10.53;5.00;;;;;;;30.14;47.51;100583.50;1766078;79;21374;-57
2023/08/04 16:45:34;;;;;;;10.63;5.95;;;;;;;29.82;47.92;100577.62;1687255;81;21473;-57
2023/08/04 16:51:08;;;;;;;8.55;5.37;;;;;;;29.56;48.31;100595.89;1790079;78;21343;-57
2023/08/04 16:56:43;;;;;;;9.08;5.30;;;;;;;29.26;48.66;100583.45;1773857;78;21211;-56
2023/08/04 17:02:18;;;;;;;7.65;5.05;;;;;;;28.92;48.88;100592.41;1779496;78;21921;-56
2023/08/04 17:07:55;;;;;;;9.58;5.40;;;;;;;28.68;49.78;100597.05;1780927;77;21271;-57
2023/08/04 17:11:00;;;;;;;8.20;6.05;;;;;;;28.68;49.78;100597.05;1750331;78;21223;-57
2023/08/04 17:19:03;;;;;;;10.78;6.22;;;;;;;28.28;50.52;100601.41;1735002;78;21758;-56
2023/08/04 17:22:08;;;;;;;11.25;5.60;;;;;;;28.18;50.80;100608.50;1749734;79;21230;-56
2023/08/04 17:25:16;;;;;;;13.80;6.35;;;;;;;28.05;51.10;100616.13;1774585;78;21586;-57
2023/08/04 17:33:22;;;;;;;13.98;7.65;;;;;;;27.65;51.87;100617.00;1756778;79;21222;-57
2023/08/04 17:36:28;;;;;;;13.32;7.47;;;;;;;27.55;52.11;100624.02;1748697;77;21728;-57
2023/08/04 17:42:05;;;;;;;14.75;7.62;;;;;;;27.28;52.72;100629.92;1762744;79;21281;-57
2023/08/04 17:50:08;;;;;;;14.05;7.12;;;;;;;26.98;53.49;100650.05;1792935;78;21235;-57
2023/08/04 17:53:14;;;;;;;13.65;7.75;;;;;;;26.88;53.73;100650.87;1769487;79;21861;-56
2023/08/04 17:56:19;;;;;;;22.05;9.43;;;;;;;26.76;54.03;100651.69;1774470;78;21231;-56
2023/08/04 17:59:25;;;;;;;17.62;8.58;;;;;;;26.67;54.32;100656.12;1766437;79;21733;-56
2023/08/04 18:07:32;;;;;;;18.65;7.97;;;;;;;26.37;55.12;100670.84;1761132;80;21808;-57
2023/08/04 18:10:45;;;;;;;15.60;8.25;;;;;;;26.30;55.33;100671.66;1758795;80;21716;-56
2023/08/04 18:13:52;;;;;;;18.95;9.43;;;;;;;26.19;55.57;100667.10;1748317;80;21243;-56
2023/08/04 18:16:59;;;;;;;26.62;13.95;;;;;;;26.09;55.80;100664.77;1763157;78;21209;-57
2023/08/04 18:20:04;;;;;;;20.82;10.90;;;;;;;25.98;56.06;100668.04;1765764;78;21888;-57
2023/08/04 18:23:11;;;;;;;21.50;10.88;;;;;;;25.91;56.36;100673.60;1751927;79;21191;-56
2023/08/04 18:26:16;;;;;;;16.67;10.50;;;;;;;25.80;56.63;100672.66;1749353;80;21235;-57
2023/08/04 18:29:22;;;;;;;24.47;11.75;;;;;;;25.72;56.87;100675.13;1788466;78;21668;-56
2023/08/04 18:32:28;;;;;;;25.15;11.25;;;;;;;25.65;57.10;100678.70;1795854;78;21193;-57
2023/08/04 18:38:04;;;;;;;25.57;13.60;;;;;;;25.47;57.64;100688.90;1803402;78;21199;-57
2023/08/04 18:43:40;;;;;;;17.45;11.00;;;;;;;25.34;58.08;100687.95;1724455;78;21304;-57
2023/08/04 18:46:47;;;;;;;24.37;12.10;;;;;;;25.26;58.27;100684.19;1794877;76;21255;-56
2023/08/04 18:52:23;;;;;;;18.42;12.55;;;;;;;25.13;58.80;100689.66;1780138;78;21222;-57
2023/08/04 18:55:32;;;;;;;23.42;12.50;;;;;;;25.08;58.97;100693.80;1784245;78;22017;-57
2023/08/04 19:01:09;;;;;;;20.55;13.30;;;;;;;24.93;59.47;100694.47;1795367;78;21286;-58
2023/08/04 19:06:46;;;;;;;17.87;13.18;;;;;;;24.84;59.98;100701.66;1748226;77;21433;-56
2023/08/04 19:12:21;;;;;;;18.45;12.65;;;;;;;24.74;60.39;100697.31;1726012;79;21378;-56
2023/08/04 19:17:57;;;;;;;20.52;13.35;;;;;;;24.66;60.80;100699.68;1721384;79;21287;-55
2023/08/04 19:23:33;;;;;;;24.98;12.40;;;;;;;24.56;61.17;100707.39;1786118;79;21460;-56
2023/08/04 19:29:07;;;;;;;27.17;13.00;;;;;;;24.47;61.61;100706.16;1787297;78;21366;-56
2023/08/04 19:32:14;;;;;;;18.00;12.18;;;;;;;24.44;61.78;100710.88;1779609;78;21748;-56
2023/08/04 19:35:20;;;;;;;26.07;16.95;;;;;;;24.40;61.99;100710.25;1774780;78;21219;-56
2023/08/04 19:38:27;;;;;;;20.12;14.40;;;;;;;24.35;62.16;100713.83;1808511;78;21232;-56
2023/08/04 19:43:45;;;;;;;20.40;12.45;;;;;;;24.25;62.51;100708.08;1791094;79;21215;-57
2023/08/04 19:46:52;;;;;;;20.97;12.03;;;;;;;24.22;62.70;100714.73;1786243;78;21851;-56
2023/08/04 19:49:59;;;;;;;20.35;11.78;;;;;;;24.19;62.89;100712.45;1793535;77;21233;-56
2023/08/04 19:53:05;;;;;;;18.90;10.68;;;;;;;24.15;63.05;100714.08;1776822;79;21192;-57
2023/08/04 20:01:16;;;;;;;15.43;10.03;;;;;;;24.01;63.47;100712.17;1796621;79;21724;-56
2023/08/04 20:09:22;;;;;;;17.48;11.55;;;;;;;23.87;63.90;100715.52;1795407;78;21213;-57
2023/08/04 20:14:59;;;;;;;15.00;10.35;;;;;;;23.78;64.15;100723.52;1794648;78;21234;-56
2023/08/04 20:20:33;;;;;;;21.05;14.35;;;;;;;23.70;64.52;100722.53;1780550;77;21934;-57
2023/08/04 20:26:13;;;;;;;34.88;25.23;;;;;;;23.62;64.83;100727.14;1778776;77;21416;-57
2023/08/04 20:29:19;;;;;;;20.30;13.22;;;;;;;23.58;64.96;100721.73;1770345;77;21421;-57
2023/08/04 20:32:26;;;;;;;17.23;10.78;;;;;;;23.54;65.16;100734.00;1787302;78;21775;-56
2023/08/04 20:35:32;;;;;;;19.70;11.08;;;;;;;23.50;65.34;100730.53;1792447;78;21239;-57
2023/08/04 20:38:38;;;;;;;16.80;10.13;;;;;;;23.47;65.52;100735.23;1788812;77;21872;-57
2023/08/04 20:41:44;;;;;;;19.25;10.60;;;;;;;23.42;65.63;100726.21;1778684;77;21246;-57
2023/08/04 20:44:50;;;;;;;17.60;10.65;;;;;;;23.37;65.77;100723.89;1789168;77;21359;-57
2023/08/04 20:47:56;;;;;;;16.82;11.57;;;;;;;23.33;65.93;100726.88;1795051;78;21224;-57
2023/08/04 20:53:28;;;;;;;18.27;12.37;;;;;;;23.22;66.21;100736.13;1802606;79;21385;-57
2023/08/04 20:59:05;;;;;;;14.87;10.38;;;;;;;23.15;66.51;100728.45;1796329;78;21358;-57
2023/08/04 21:04:41;;;;;;;14.45;10.15;;;;;;;23.12;66.87;100730.36;1796998;79;21263;-57
2023/08/04 21:10:16;;;;;;;17.35;10.40;;;;;;;23.08;67.23;100730.54;1787786;77;21669;-56
2023/08/04 21:15:54;;;;;;;13.25;10.13;;;;;;;23.04;67.48;100726.56;1792219;79;21201;-56
2023/08/04 21:19:04;;;;;;;14.03;10.45;;;;;;;23.02;67.54;100731.54;1754217;77;21198;-56
2023/08/04 21:22:10;;;;;;;17.67;10.45;;;;;;;22.98;67.71;100732.58;1778387;77;21866;-57
2023/08/04 21:25:18;;;;;;;16.52;10.18;;;;;;;22.96;67.83;100728.34;1764844;77;21192;-56
2023/08/04 21:28:24;;;;;;;16.77;10.25;;;;;;;22.90;67.92;100731.57;1776345;77;21901;-57
2023/08/04 21:31:31;;;;;;;13.68;10.40;;;;;;;22.87;68.05;100729.81;1782747;77;21458;-56
2023/08/04 21:34:38;;;;;;;18.60;10.43;;;;;;;22.84;68.21;100731.70;1776583;77;21352;-56
2023/08/04 21:37:44;;;;;;;13.65;10.10;;;;;;;22.81;68.33;100731.67;1783567;79;21200;-56
2023/08/04 21:45:48;;;;;;;16.62;12.78;;;;;;;22.69;68.60;100732.80;1754877;79;21233;-56
2023/08/04 21:48:57;;;;;;;11.93;10.65;;;;;;;22.66;68.70;100735.52;1769329;78;21347;-56
2023/08/04 21:54:40;;;;;;;14.23;10.70;;;;;;;22.60;69.03;100737.03;1751096;79;21393;-56
2023/08/04 21:57:47;;;;;;;17.62;10.53;;;;;;;22.59;69.18;100742.33;1751391;78;21219;-58
2023/08/04 22:00:54;;;;;;;11.83;10.00;;;;;;;22.56;69.33;100740.03;1733030;80;21455;-55
2023/08/04 22:03:22;;;;;;;12.60;10.13;;;;;;;22.53;69.44;100738.59;1780114;79;21277;-56
2023/08/04 22:06:30;;;;;;;18.07;10.82;;;;;;;22.50;69.53;100740.42;1792406;78;21254;-56